Airfield :
LOGIN :

Register | Disclaimer

   EN    FR    IT 

 










Legend :    VFR   Marginal VFR   IFR   Intensive IFR   Very Intensive IFR
Visi :
Ceiling :
>= 8 km
>= 3000ft
5 to 8 km
1000 to 3000 ft
1500m to 5 km
500 to 1000 ft
800 to 1500m
200 to 500 ft
< 800m
< 200 ft
Symbols :   Thunderstorms  Fog  Heavy snow  Heavy precipitations  Wind > 20 kt
SIGMETs :     Misc.  Thunderstorms  Icing  Turbulence  Mountain Waves  Volcanic Ashes







- Airport Elevation : 46 ft
- IATA code : SNN


EINN - Shannon

CURRENT METAR :
  • 141830Z 24006KT 9999 FEW018CB SCT150 04/02 Q0995 NOSIG

EXPIRED METARs :
  • 141800Z 30005KT 9999 FEW018CB BKN035 05/03 Q0995 NOSIG
  • 141730Z 27008KT 9999 FEW018CB SCT160 05/03 Q0994 NOSIG
  • 141700Z 28009KT 9999 FEW018CB 05/02 Q0993 NOSIG
  • 141630Z 30009KT 9999 FEW018CB 05/03 Q0993 NOSIG
  • 141600Z 30012KT 9999 SCT018CB 06/02 Q0993 NOSIG

TAF TAF EINN
Valid from the 14 at 18:00 until the 15 at 18:00 UTC


141700Z 1418/1518 29015KT 9999 SCT018 BKN025
TEMPO 1418/1421 30017G27KT 5000 SHRA SCT010 SCT018CB
BECMG 1421/1424 33016KT
TEMPO 1500/1506 33017G28KT
BECMG 1514/1517 33006KT
No reported NOTAMs for that airfield.
2 SIGMETs reported for the Shannon FIR (EISN) :
 
Severe turbulence
EISN SIGMET 12 VALID 141700/141900 EINN
EISN SHANNON FIR SEV TURB FCST N5140 W00930 - N5140 W00643 - N5100 W00800 - N5100 W00930 - N5140 W00930 SFC/FL060 MOV SE AT 40KT NC=
Severe turbulence
EISN SIGMET 11 VALID 141700/142100 EINN
EISN SHANNON FIR SEV TURB FCST WI N5432 W01000 - N5140 W00930 - N5100 W00930 - N5100 W01500 - N5400 W01500 - N5432 W01000 SFC/FL060 MOV SE AT 40KT NC=



MET'MAP, your aeronautical weather chart ! - Copyright ORBIFLY December 2007 - Disclaimer

ORBIFLY MET'MAP TEAM :

Programming & Development : Alexandra Zaïnal
Concept & Development : Baudouin d'Aumeries
Co-Development & Prog : Marc-Olivier Méhu
Technical & hardware support : Manuel Goepfert

Contact : metmap@orbifly.com




SOURCES & CREDITS :

   NOAA